CheckWX is a tool to help pilots better visualize weather data.  It is not intended as a substitute for an official pre-flight weather briefing.

17:38:48 UTC

PAAQ TAF
Palmer Buddy Woods Municipal Airport
Palmer, Alaska, USA
PAAQ 201122Z 2012/2112 35011KT P6SM SCT100 BKN200

Oct-20@
12:00 UTC

Oct-20 @ 12:00 UTC

Oct-21@
12:00 UTC

Oct-21 @ 12:00 UTC

PAAQ 201122Z 2012/2112 35011KT P6SM SCT100 BKN200
Wind
  • 350° at 11 KTS
Cloud Levels
  • Scattered at 10,000' AGL
  • Broken at 20,000' AGL